Time;durP1;ratioP1;P1;durP2;ratioP2;P2;SDS_P1;SDS_P2;PMS_P1;PMS_P2;Temp;Humidity;BMP_temperature;BMP_pressure;BME280_temperature;BME280_humidity;BME280_pressure;Samples;Min_cycle;Max_cycle;Signal;HPM_P1;HPM_P2
2022/04/18 00:00:04;;;;;;;17.48;9.85;;;7.20;99.90;;;;;;4948039;28;20043;-81
2022/04/18 00:02:29;;;;;;;16.98;10.07;;;7.20;99.90;;;;;;4929582;29;20130;-80
2022/04/18 00:04:55;;;;;;;18.70;10.10;;;7.10;99.90;;;;;;4935382;29;20130;-80
2022/04/18 00:07:21;;;;;;;18.05;10.13;;;7.10;99.90;;;;;;4947995;28;20161;-80
2022/04/18 00:09:46;;;;;;;20.75;10.60;;;7.00;99.90;;;;;;4932537;28;20059;-80
2022/04/18 00:12:12;;;;;;;19.35;10.10;;;7.20;99.90;;;;;;4919320;29;20094;-80
2022/04/18 00:14:38;;;;;;;18.27;11.02;;;7.00;99.90;;;;;;4934460;29;20560;-80
2022/04/18 00:17:09;;;;;;;19.90;11.57;;;7.00;99.90;;;;;;4932560;29;20404;-80
2022/04/18 00:19:36;;;;;;;21.63;10.57;;;6.90;99.90;;;;;;4945815;28;20035;-80
2022/04/18 00:22:02;;;;;;;19.45;11.10;;;6.90;99.90;;;;;;4934963;28;20043;-80
2022/04/18 00:24:28;;;;;;;20.65;11.75;;;6.90;99.90;;;;;;4949540;28;20066;-80
2022/04/18 00:26:54;;;;;;;21.52;11.68;;;6.80;99.90;;;;;;4933689;28;20066;-80
2022/04/18 00:29:19;;;;;;;20.35;11.80;;;7.10;99.90;;;;;;4930380;28;20079;-80
2022/04/18 00:31:45;;;;;;;21.52;12.02;;;7.70;99.90;;;;;;4932402;29;20039;-80
2022/04/18 00:34:11;;;;;;;21.42;11.10;;;6.80;99.90;;;;;;4919639;28;20035;-80
2022/04/18 00:36:37;;;;;;;20.75;11.20;;;6.80;99.90;;;;;;4933071;28;20110;-80
2022/04/18 00:39:02;;;;;;;19.65;10.68;;;6.70;99.90;;;;;;4916967;29;20047;-80
2022/04/18 00:41:28;;;;;;;19.65;11.45;;;6.70;99.90;;;;;;4933249;29;20463;-80
2022/04/18 00:43:54;;;;;;;20.27;11.48;;;6.80;99.90;;;;;;4931103;29;20492;-80
2022/04/18 00:46:20;;;;;;;20.38;11.13;;;6.60;99.90;;;;;;4932329;29;20039;-80
2022/04/18 00:48:48;;;;;;;18.77;10.73;;;6.60;99.90;;;;;;4931562;29;20051;-80
2022/04/18 00:51:16;;;;;;;19.48;10.27;;;6.60;99.90;;;;;;4949706;28;20039;-80
2022/04/18 00:53:43;;;;;;;18.50;9.88;;;6.60;99.90;;;;;;4948810;28;20122;-80
2022/04/18 00:56:12;;;;;;;16.92;9.48;;;6.60;99.90;;;;;;4900014;29;20032;-80
2022/04/18 00:58:41;;;;;;;16.80;9.88;;;6.50;99.90;;;;;;4933598;29;20093;-80
2022/04/18 01:01:07;;;;;;;17.58;9.25;;;6.50;99.90;;;;;;4930606;29;20047;-80
2022/04/18 01:03:32;;;;;;;17.25;9.63;;;6.50;99.90;;;;;;4947343;28;20094;-80
2022/04/18 01:06:00;;;;;;;17.55;10.13;;;6.90;99.90;;;;;;4950301;28;20066;-80
2022/04/18 01:08:29;;;;;;;18.20;10.20;;;6.50;99.90;;;;;;4948226;28;20035;-80
2022/04/18 01:10:55;;;;;;;17.50;10.43;;;6.80;99.90;;;;;;4946931;29;20074;-80
2022/04/18 01:13:22;;;;;;;16.98;9.80;;;6.40;99.90;;;;;;4929280;29;20871;-80
2022/04/18 01:15:55;;;;;;;18.90;10.70;;;6.40;99.90;;;;;;4950475;28;20408;-80
2022/04/18 01:18:21;;;;;;;;;;;6.40;99.90;;;;;;4932974;29;20400;-80
2022/04/18 01:20:46;;;;;;;18.95;10.27;;;6.30;99.90;;;;;;4949441;28;19922;-80
2022/04/18 01:23:13;;;;;;;17.60;9.68;;;6.30;99.90;;;;;;4932565;28;20202;-80
2022/04/18 01:31:08;;;;;;;18.30;10.57;;;6.60;99.90;;;;;;4938492;28;20127;-80
2022/04/18 01:33:34;;;;;;;18.55;10.18;;;6.20;99.90;;;;;;4933213;29;20461;-80
2022/04/18 01:35:59;;;;;;;17.95;10.25;;;6.20;99.90;;;;;;4950783;28;20057;-80
2022/04/18 01:38:25;;;;;;;19.17;10.45;;;6.20;99.90;;;;;;4933254;29;20049;-80
2022/04/18 01:40:51;;;;;;;18.30;9.68;;;6.60;99.90;;;;;;4949937;28;20078;-80
2022/04/18 01:43:17;;;;;;;18.60;10.25;;;6.20;99.90;;;;;;4947645;28;20090;-80
2022/04/18 01:45:43;;;;;;;18.02;10.18;;;6.30;99.90;;;;;;4949294;28;20050;-80
2022/04/18 01:48:09;;;;;;;20.35;10.18;;;6.20;99.90;;;;;;4915857;29;20051;-80
2022/04/18 01:50:34;;;;;;;19.30;10.55;;;6.20;99.90;;;;;;4933099;29;20078;-80
2022/04/18 01:53:00;;;;;;;18.80;10.57;;;6.10;99.90;;;;;;4931407;29;20035;-80
2022/04/18 01:55:26;;;;;;;19.17;10.32;;;6.80;99.90;;;;;;4930372;29;20460;-80
2022/04/18 01:57:51;;;;;;;18.75;9.77;;;6.10;99.90;;;;;;4932320;28;20051;-80
2022/04/18 02:00:17;;;;;;;16.92;9.77;;;6.10;99.90;;;;;;4914419;28;20046;-80
2022/04/18 02:02:43;;;;;;;16.00;9.35;;;7.10;99.90;;;;;;4932073;29;20043;-80
2022/04/18 02:05:09;;;;;;;17.92;10.15;;;7.30;99.90;;;;;;4932037;29;20031;-80
2022/04/18 02:07:35;;;;;;;19.77;10.32;;;6.10;99.90;;;;;;4914689;29;20559;-80
2022/04/18 02:10:02;;;;;;;19.60;10.10;;;6.00;99.90;;;;;;4948488;28;20052;-80
2022/04/18 02:12:28;;;;;;;19.00;10.15;;;6.50;99.90;;;;;;4930835;28;20527;-79
2022/04/18 02:14:54;;;;;;;20.63;10.95;;;6.00;99.90;;;;;;4935465;28;20039;-80
2022/04/18 02:17:20;;;;;;;16.65;10.00;;;6.00;99.90;;;;;;4931257;29;20110;-80
2022/04/18 02:19:46;;;;;;;17.52;10.35;;;6.00;99.90;;;;;;4933117;29;20035;-79
2022/04/18 02:22:12;;;;;;;17.85;10.25;;;6.10;99.90;;;;;;4947697;28;20097;-80
2022/04/18 02:24:39;;;;;;;19.75;10.27;;;6.00;99.90;;;;;;4946732;29;21200;-80
2022/04/18 02:27:06;;;;;;;16.83;9.68;;;6.00;99.90;;;;;;4947595;28;20079;-80
2022/04/18 02:29:33;;;;;;;19.83;10.70;;;5.90;99.90;;;;;;4929898;29;20040;-79
2022/04/18 02:34:43;;;;;;;18.33;10.15;;;5.90;99.90;;;;;;4950825;28;20503;-80
2022/04/18 02:37:10;;;;;;;18.27;10.93;;;5.80;99.90;;;;;;4950332;28;20047;-80
2022/04/18 02:39:36;;;;;;;19.50;10.48;;;5.80;99.90;;;;;;4968301;28;20043;-80
2022/04/18 02:42:02;;;;;;;18.35;10.00;;;5.80;99.90;;;;;;4932709;28;20035;-80
2022/04/18 02:44:27;;;;;;;20.05;10.45;;;6.40;99.90;;;;;;4958931;28;20073;-80
2022/04/18 02:46:53;;;;;;;17.83;10.20;;;5.70;99.90;;;;;;4937265;29;20051;-80
2022/04/18 02:49:19;;;;;;;17.83;10.30;;;5.70;99.90;;;;;;4951517;28;20035;-79
2022/04/18 02:51:44;;;;;;;19.10;10.52;;;5.80;99.90;;;;;;4935414;29;20488;-80
2022/04/18 02:54:10;;;;;;;19.02;9.90;;;5.70;99.90;;;;;;4933055;29;20034;-80
2022/04/18 02:56:36;;;;;;;17.83;10.23;;;5.60;99.90;;;;;;4933283;29;20416;-80
2022/04/18 02:59:01;;;;;;;21.10;11.05;;;6.60;99.90;;;;;;4951907;28;20493;-80
2022/04/18 03:01:27;;;;;;;19.08;10.43;;;5.60;99.90;;;;;;4933159;29;20046;-80
2022/04/18 03:03:53;;;;;;;19.00;10.27;;;5.50;99.90;;;;;;4936944;28;20081;-80
2022/04/18 03:06:19;;;;;;;19.73;10.60;;;5.50;99.90;;;;;;4920115;29;20497;-79
2022/04/18 03:08:44;;;;;;;18.83;10.65;;;5.50;99.90;;;;;;4935886;29;20055;-80
2022/04/18 03:11:10;;;;;;;18.75;9.95;;;5.60;99.90;;;;;;4934221;29;20516;-80
2022/04/18 03:13:37;;;;;;;18.73;10.38;;;6.10;99.90;;;;;;4950846;28;20035;-80
2022/04/18 03:16:04;;;;;;;19.92;10.55;;;6.40;99.90;;;;;;4950512;29;20043;-80
2022/04/18 03:18:30;;;;;;;20.65;10.68;;;5.50;99.90;;;;;;4948268;28;20396;-79
2022/04/18 03:20:57;;;;;;;19.77;10.73;;;5.50;99.90;;;;;;4949290;28;20042;-80
2022/04/18 03:23:23;;;;;;;20.17;10.70;;;6.30;99.90;;;;;;4940584;28;20100;-80
2022/04/18 03:25:49;;;;;;;19.67;11.25;;;6.00;99.90;;;;;;4951867;28;20043;-80
2022/04/18 03:28:15;;;;;;;21.52;11.43;;;5.40;99.90;;;;;;4933212;28;20112;-80
2022/04/18 03:30:41;;;;;;;20.10;11.27;;;5.40;99.90;;;;;;4933369;28;20083;-80
2022/04/18 03:33:07;;;;;;;21.48;11.68;;;5.70;99.90;;;;;;4938346;29;20041;-80
2022/04/18 03:35:33;;;;;;;21.35;11.48;;;5.40;99.90;;;;;;4947776;28;20039;-80
2022/04/18 03:40:43;;;;;;;20.40;11.32;;;5.30;99.90;;;;;;4951034;28;20043;-80
2022/04/18 03:43:08;;;;;;;22.02;11.43;;;5.90;99.90;;;;;;4937961;28;20035;-80
2022/04/18 03:45:34;;;;;;;19.85;10.73;;;5.30;99.90;;;;;;4949742;28;20572;-80
2022/04/18 03:48:00;;;;;;;19.35;11.00;;;5.20;99.90;;;;;;4931334;29;20433;-80
2022/04/18 03:50:26;;;;;;;18.63;10.88;;;5.20;99.90;;;;;;4948974;28;20043;-79
2022/04/18 03:52:52;;;;;;;18.30;10.68;;;5.50;99.90;;;;;;4949592;28;20062;-79
2022/04/18 03:55:18;;;;;;;19.25;10.23;;;5.40;99.90;;;;;;4934652;28;20054;-80
2022/04/18 03:57:43;;;;;;;20.00;11.23;;;5.20;99.90;;;;;;4934592;29;20115;-80
2022/04/18 04:00:10;;;;;;;19.15;10.90;;;5.20;99.90;;;;;;4934532;29;20031;-80
2022/04/18 04:02:36;;;;;;;18.38;10.35;;;5.20;99.90;;;;;;4950723;28;20098;-79
2022/04/18 04:05:03;;;;;;;17.52;10.05;;;5.20;99.90;;;;;;4931995;28;20456;-80
2022/04/18 04:07:29;;;;;;;21.23;10.30;;;5.10;99.90;;;;;;4949418;28;20058;-80
2022/04/18 04:09:54;;;;;;;18.55;10.30;;;5.10;99.90;;;;;;4934014;29;20055;-80
2022/04/18 04:12:24;;;;;;;18.45;9.95;;;5.10;99.90;;;;;;4933496;28;20043;-80
2022/04/18 04:14:54;;;;;;;20.23;10.85;;;6.30;99.90;;;;;;4946379;28;20074;-80
2022/04/18 04:17:23;;;;;;;20.92;10.15;;;6.20;99.90;;;;;;4942118;28;20046;-80
2022/04/18 04:19:49;;;;;;;18.27;9.95;;;5.00;99.90;;;;;;4953808;28;20058;-79
2022/04/18 04:22:15;;;;;;;18.63;10.35;;;5.00;99.90;;;;;;4947995;29;20039;-79
2022/04/18 04:24:41;;;;;;;18.02;9.82;;;5.00;99.90;;;;;;4919992;29;20113;-80
2022/04/18 04:27:06;;;;;;;18.20;9.98;;;6.30;99.90;;;;;;4932241;29;20492;-80
2022/04/18 04:29:32;;;;;;;17.00;9.88;;;5.00;99.90;;;;;;4932580;29;20043;-80
2022/04/18 04:31:58;;;;;;;18.15;9.55;;;5.10;99.90;;;;;;4948782;29;20039;-79
2022/04/18 04:34:24;;;;;;;20.40;10.05;;;5.10;99.90;;;;;;4934556;29;20492;-80
2022/04/18 04:36:50;;;;;;;17.52;9.68;;;5.10;99.90;;;;;;4930949;28;20071;-79
2022/04/18 04:39:17;;;;;;;18.80;9.50;;;5.10;99.90;;;;;;4932545;29;20035;-80
2022/04/18 04:41:43;;;;;;;15.68;9.15;;;5.10;99.90;;;;;;4933403;29;20047;-80
2022/04/18 04:44:09;;;;;;;17.70;9.75;;;5.10;99.90;;;;;;4934875;28;20047;-79
2022/04/18 04:46:35;;;;;;;19.88;9.65;;;5.20;99.90;;;;;;4940853;29;20396;-80
2022/04/18 04:49:02;;;;;;;17.70;9.57;;;6.20;99.90;;;;;;4949663;28;20409;-80
2022/04/18 04:51:28;;;;;;;17.58;9.45;;;5.00;99.90;;;;;;4930696;29;20126;-79
2022/04/18 04:53:53;;;;;;;17.15;9.18;;;5.00;99.90;;;;;;4900887;29;20122;-80
2022/04/18 04:56:21;;;;;;;15.13;8.65;;;5.00;99.90;;;;;;4947589;28;20071;-80
2022/04/18 04:58:47;;;;;;;19.05;9.40;;;5.60;99.90;;;;;;4949231;28;20039;-80
2022/04/18 05:01:13;;;;;;;16.52;9.13;;;5.40;99.90;;;;;;4932182;29;20119;-79
2022/04/18 05:03:39;;;;;;;16.77;9.20;;;5.10;99.90;;;;;;4933627;28;20109;-80
2022/04/18 05:06:06;;;;;;;17.00;9.23;;;5.10;99.90;;;;;;4930898;29;20572;-79
2022/04/18 05:08:32;;;;;;;15.95;8.70;;;5.20;99.90;;;;;;4948317;28;20039;-80
2022/04/18 05:10:59;;;;;;;16.45;8.63;;;5.70;99.90;;;;;;4934691;28;20432;-80
2022/04/18 05:13:26;;;;;;;16.52;8.77;;;5.30;99.90;;;;;;4940726;29;20035;-80
2022/04/18 05:15:52;;;;;;;16.33;8.65;;;5.20;99.90;;;;;;4922460;28;20043;-80
2022/04/18 05:18:17;;;;;;;16.30;8.43;;;6.00;99.90;;;;;;4936574;29;20503;-79
2022/04/18 05:20:45;;;;;;;17.63;8.55;;;5.30;99.90;;;;;;4947218;28;20079;-80
2022/04/18 05:23:12;;;;;;;15.55;8.20;;;5.40;99.90;;;;;;4931262;29;20488;-80
2022/04/18 05:25:38;;;;;;;16.17;8.70;;;5.90;99.90;;;;;;4932869;29;20047;-80
2022/04/18 05:28:04;;;;;;;14.93;8.20;;;6.40;99.90;;;;;;4912140;28;20047;-80
2022/04/18 05:30:30;;;;;;;14.40;8.75;;;5.60;99.90;;;;;;4948159;28;20574;-80
2022/04/18 05:32:56;;;;;;;17.08;8.43;;;6.10;99.90;;;;;;4933031;29;20035;-80
2022/04/18 05:35:22;;;;;;;16.38;8.25;;;5.70;99.90;;;;;;4947389;29;20191;-80
2022/04/18 05:37:48;;;;;;;15.65;8.80;;;5.80;99.90;;;;;;4937362;28;20122;-80
2022/04/18 05:40:13;;;;;;;15.30;8.75;;;5.90;99.90;;;;;;4948193;28;20074;-80
2022/04/18 05:42:39;;;;;;;18.73;8.70;;;6.00;99.90;;;;;;4914136;29;20085;-79
2022/04/18 05:45:09;;;;;;;16.33;8.05;;;6.10;99.90;;;;;;4932020;28;20154;-79
2022/04/18 05:47:34;;;;;;;15.18;8.38;;;6.30;99.90;;;;;;4945748;28;20074;-79
2022/04/18 05:50:00;;;;;;;15.35;8.65;;;6.40;99.90;;;;;;4947286;28;20492;-79
2022/04/18 05:52:26;;;;;;;16.20;8.82;;;7.30;99.90;;;;;;4948813;28;20040;-79
2022/04/18 05:54:51;;;;;;;17.17;8.32;;;6.70;99.90;;;;;;4931831;29;20511;-79
2022/04/18 05:57:17;;;;;;;18.17;8.98;;;6.90;99.90;;;;;;4933011;29;20059;-79
2022/04/18 05:59:43;;;;;;;15.73;7.80;;;7.00;99.90;;;;;;4933368;29;20043;-79
2022/04/18 06:02:09;;;;;;;14.77;8.10;;;7.20;99.90;;;;;;4931504;29;20122;-80
2022/04/18 06:04:35;;;;;;;15.27;8.13;;;7.40;99.90;;;;;;4916476;29;20127;-79
2022/04/18 06:07:00;;;;;;;17.17;8.90;;;7.50;99.90;;;;;;4916284;29;20075;-79
2022/04/18 06:09:26;;;;;;;15.85;8.35;;;7.60;99.90;;;;;;4935797;29;20077;-80
2022/04/18 06:11:52;;;;;;;17.58;8.52;;;7.80;99.90;;;;;;4938364;28;20047;-79
2022/04/18 06:14:18;;;;;;;16.38;9.02;;;7.90;99.90;;;;;;4934839;29;20039;-79
2022/04/18 06:16:43;;;;;;;16.67;9.43;;;8.10;99.90;;;;;;4920728;29;20038;-79
2022/04/18 06:19:09;;;;;;;17.75;10.02;;;8.20;99.90;;;;;;4952049;28;20035;-79
2022/04/18 06:21:35;;;;;;;16.83;9.35;;;8.50;99.90;;;;;;4951420;28;20542;-79
2022/04/18 06:24:00;;;;;;;17.23;8.95;;;8.50;99.90;;;;;;4936711;29;20039;-79
2022/04/18 06:26:26;;;;;;;17.77;9.20;;;8.60;99.90;;;;;;4919610;28;20050;-79
2022/04/18 06:28:52;;;;;;;16.17;8.05;;;8.80;99.90;;;;;;4936039;29;20043;-80
2022/04/18 06:31:17;;;;;;;14.82;8.60;;;8.90;99.90;;;;;;4937509;29;20555;-79
2022/04/18 06:33:43;;;;;;;15.68;7.97;;;9.10;99.90;;;;;;4951872;28;20082;-79
2022/04/18 06:36:09;;;;;;;15.93;8.25;;;9.20;99.90;;;;;;4936246;29;20039;-79
2022/04/18 06:38:35;;;;;;;14.68;7.70;;;9.30;99.90;;;;;;4951101;28;20038;-79
2022/04/18 06:41:01;;;;;;;14.15;7.78;;;9.40;99.90;;;;;;4931572;28;20071;-80
2022/04/18 06:43:27;;;;;;;14.82;8.02;;;9.60;99.90;;;;;;4935652;29;20047;-79
2022/04/18 06:45:53;;;;;;;13.65;7.40;;;9.70;99.90;;;;;;4915057;29;20049;-79
2022/04/18 06:48:19;;;;;;;16.13;7.93;;;9.80;99.90;;;;;;4935914;29;20039;-80
2022/04/18 06:50:45;;;;;;;14.32;7.65;;;10.00;99.90;;;;;;4934771;29;20070;-79
2022/04/18 06:53:12;;;;;;;15.50;8.13;;;10.10;99.90;;;;;;4931279;28;20043;-80
2022/04/18 06:58:22;;;;;;;13.68;7.63;;;10.40;99.90;;;;;;4938600;28;20082;-79
2022/04/18 07:00:48;;;;;;;18.58;7.60;;;10.50;99.90;;;;;;4939160;29;20077;-80
2022/04/18 07:03:14;;;;;;;16.67;7.97;;;10.60;99.90;;;;;;4935656;29;20044;-80
2022/04/18 07:05:41;;;;;;;14.27;7.90;;;10.80;99.90;;;;;;4903226;28;20121;-80
2022/04/18 07:08:07;;;;;;;14.48;7.10;;;11.10;99.90;;;;;;4934699;29;20085;-80
2022/04/18 07:10:33;;;;;;;14.05;7.75;;;11.00;99.90;;;;;;4935106;29;20050;-80
2022/04/18 07:12:59;;;;;;;14.05;7.65;;;11.20;99.90;;;;;;4951585;28;20031;-80
2022/04/18 07:15:25;;;;;;;12.65;6.72;;;11.40;99.90;;;;;;4936090;29;20043;-80
2022/04/18 07:17:51;;;;;;;15.90;7.20;;;11.50;99.90;;;;;;4933384;28;20043;-80
2022/04/18 07:20:17;;;;;;;14.23;6.72;;;11.60;99.90;;;;;;4934830;29;20047;-80
2022/04/18 07:22:42;;;;;;;14.38;6.90;;;11.70;99.90;;;;;;4934763;29;20097;-79
2022/04/18 07:25:08;;;;;;;12.95;7.13;;;11.80;99.90;;;;;;4936455;28;20042;-80
2022/04/18 07:27:34;;;;;;;14.15;7.28;;;11.80;99.90;;;;;;4933978;29;20497;-80
2022/04/18 07:30:00;;;;;;;13.90;7.25;;;11.90;99.90;;;;;;4938657;29;20046;-80
2022/04/18 07:32:26;;;;;;;13.90;7.30;;;12.00;99.90;;;;;;4934451;29;20039;-80
2022/04/18 07:34:53;;;;;;;12.38;6.95;;;12.10;99.90;;;;;;4936939;29;20034;-80
2022/04/18 07:37:19;;;;;;;14.43;7.43;;;12.10;99.90;;;;;;4933887;29;20503;-80
2022/04/18 07:39:45;;;;;;;15.35;7.43;;;12.10;99.90;;;;;;4919843;29;20050;-80
2022/04/18 07:42:11;;;;;;;14.90;7.43;;;12.20;99.90;;;;;;4920016;29;20051;-82
2022/04/18 07:44:37;;;;;;;13.95;7.15;;;12.30;99.90;;;;;;4950882;28;20043;-81
2022/04/18 07:47:04;;;;;;;13.52;7.10;;;12.40;99.90;;;;;;4919887;28;20439;-81
2022/04/18 07:49:29;;;;;;;14.27;7.68;;;12.50;99.90;;;;;;4904194;29;20043;-80
2022/04/18 07:51:55;;;;;;;15.35;7.93;;;12.60;99.90;;;;;;4935965;28;20054;-80
2022/04/18 07:54:23;;;;;;;14.50;7.68;;;12.80;99.90;;;;;;4966642;28;20038;-80
2022/04/18 07:56:49;;;;;;;13.00;7.35;;;12.90;99.90;;;;;;4954449;28;20058;-80
2022/04/18 07:59:15;;;;;;;13.43;7.00;;;13.00;99.90;;;;;;4949104;28;20051;-80
2022/04/18 08:01:41;;;;;;;12.50;6.78;;;13.10;99.90;;;;;;4929959;29;20054;-80
2022/04/18 08:04:07;;;;;;;12.27;6.60;;;13.10;99.90;;;;;;4946937;28;20042;-80
2022/04/18 08:06:33;;;;;;;12.65;6.88;;;13.20;99.90;;;;;;4951232;28;20047;-80
2022/04/18 08:08:59;;;;;;;14.13;7.47;;;13.30;99.90;;;;;;4932101;28;20039;-81
2022/04/18 08:11:26;;;;;;;14.85;7.18;;;13.40;99.90;;;;;;4932945;29;20066;-81
2022/04/18 08:13:53;;;;;;;12.68;6.78;;;13.50;99.90;;;;;;4951079;28;20396;-81
2022/04/18 08:16:19;;;;;;;13.20;6.43;;;13.60;99.90;;;;;;4934328;29;20392;-81
2022/04/18 08:18:45;;;;;;;13.05;6.35;;;13.70;99.90;;;;;;4936266;29;20097;-81
2022/04/18 08:21:17;;;;;;;12.30;6.75;;;13.80;99.90;;;;;;4951482;28;20514;-81
2022/04/18 08:23:43;;;;;;;12.82;6.10;;;14.00;99.90;;;;;;4934871;28;20074;-81
2022/04/18 08:26:09;;;;;;;11.90;6.15;;;14.10;99.90;;;;;;4949353;28;20065;-81
2022/04/18 08:28:35;;;;;;;12.88;6.13;;;14.10;99.60;;;;;;4950540;28;20039;-81
2022/04/18 08:31:01;;;;;;;13.57;6.60;;;14.10;97.20;;;;;;4932065;28;20049;-81
2022/04/18 08:33:29;;;;;;;12.40;6.07;;;14.10;97.00;;;;;;4940057;28;20043;-81
2022/04/18 08:35:57;;;;;;;12.52;6.00;;;14.20;97.10;;;;;;4931456;29;20621;-81
2022/04/18 08:38:23;;;;;;;12.60;6.03;;;14.30;96.90;;;;;;4932230;28;20098;-81
2022/04/18 08:40:50;;;;;;;11.90;5.75;;;14.30;95.50;;;;;;4948872;28;20066;-82
2022/04/18 08:43:17;;;;;;;13.15;6.45;;;14.40;95.20;;;;;;4948323;28;20039;-81
2022/04/18 08:45:42;;;;;;;11.55;5.75;;;14.50;94.80;;;;;;4935741;29;20230;-81
2022/04/18 08:53:38;;;;;;;11.07;5.70;;;14.70;94.60;;;;;;4948424;28;20039;-80
2022/04/18 08:56:04;;;;;;;11.60;6.05;;;14.80;94.30;;;;;;4932717;29;20039;-79
2022/04/18 08:58:30;;;;;;;11.38;5.75;;;15.70;93.30;;;;;;4915610;28;20448;-80
2022/04/18 09:00:59;;;;;;;11.25;5.97;;;15.00;92.00;;;;;;4931444;29;20401;-81
2022/04/18 09:03:25;;;;;;;11.10;5.85;;;15.10;91.20;;;;;;4933442;28;20069;-80
2022/04/18 09:06:10;;;;;;;12.25;5.90;;;15.20;91.90;;;;;;4933682;28;20034;-80
2022/04/18 09:08:44;;;;;;;11.82;5.57;;;15.30;88.40;;;;;;4947503;28;20050;-81
2022/04/18 09:11:11;;;;;;;13.50;5.90;;;15.40;85.60;;;;;;4948055;28;20062;-81
2022/04/18 09:13:48;;;;;;;12.63;5.82;;;15.40;87.50;;;;;;4946410;28;20039;-82
2022/04/18 09:16:17;;;;;;;11.40;5.60;;;15.50;85.20;;;;;;4928623;29;20041;-81
2022/04/18 09:18:43;;;;;;;12.25;5.63;;;15.60;85.10;;;;;;4916302;28;20035;-80
2022/04/18 09:21:08;;;;;;;10.77;5.22;;;15.80;83.40;;;;;;4931404;28;20116;-81
2022/04/18 09:23:35;;;;;;;11.77;5.53;;;15.80;84.40;;;;;;4933926;28;20953;-80
2022/04/18 09:26:08;;;;;;;11.73;6.03;;;16.00;83.20;;;;;;4947595;28;20448;-81
2022/04/18 09:28:35;;;;;;;;;;;16.00;82.00;;;;;;4945978;28;20043;-81
2022/04/18 09:31:07;;;;;;;12.35;5.22;;;16.10;81.00;;;;;;4965235;28;19923;-81
2022/04/18 09:33:56;;;;;;;10.93;5.32;;;16.20;80.20;;;;;;4947180;28;20039;-81
2022/04/18 09:36:23;;;;;;;11.05;5.28;;;16.20;77.60;;;;;;4947327;28;20499;-81
2022/04/18 09:38:51;;;;;;;10.10;5.18;;;16.30;79.00;;;;;;4913625;29;22585;-81
2022/04/18 09:41:30;;;;;;;10.35;5.43;;;16.40;79.30;;;;;;4942764;28;20543;-82
2022/04/18 09:43:56;;;;;;;10.40;5.15;;;16.50;78.20;;;;;;4945701;28;20552;-82
2022/04/18 09:46:23;;;;;;;11.63;5.63;;;16.60;75.40;;;;;;4935102;28;20043;-81
2022/04/18 09:48:51;;;;;;;12.40;5.80;;;16.60;74.80;;;;;;4941097;29;20046;-81
2022/04/18 09:51:25;;;;;;;11.20;5.50;;;16.70;74.40;;;;;;4948302;28;20074;-81
2022/04/18 09:53:54;;;;;;;10.45;5.57;;;16.80;73.10;;;;;;4932408;29;20039;-82
2022/04/18 09:56:22;;;;;;;10.95;5.32;;;16.80;70.60;;;;;;4947266;29;20125;-82
2022/04/18 09:58:48;;;;;;;10.25;4.90;;;16.90;71.00;;;;;;4949852;28;20122;-81
2022/04/18 10:01:16;;;;;;;11.45;4.85;;;16.90;69.50;;;;;;4947950;28;20444;-82
2022/04/18 10:03:43;;;;;;;12.02;5.07;;;17.10;70.00;;;;;;4932190;28;20290;-82
2022/04/18 10:06:10;;;;;;;11.80;5.30;;;17.10;70.10;;;;;;4947414;28;20094;-82
2022/04/18 10:08:37;;;;;;;11.20;5.10;;;17.30;70.00;;;;;;4931747;29;20114;-81
2022/04/18 10:11:11;;;;;;;11.82;5.20;;;17.40;69.00;;;;;;4946616;28;20059;-82
2022/04/18 10:13:38;;;;;;;9.40;4.47;;;17.40;67.10;;;;;;4932075;29;20042;-82
2022/04/18 10:16:05;;;;;;;9.73;4.85;;;17.60;68.10;;;;;;4948632;28;20454;-82
2022/04/18 10:18:45;;;;;;;10.60;5.18;;;17.70;68.30;;;;;;4934510;29;20043;-82
2022/04/18 10:21:17;;;;;;;10.65;4.95;;;17.70;67.90;;;;;;4947971;29;20113;-82
2022/04/18 10:24:03;;;;;;;11.48;5.38;;;17.80;66.80;;;;;;4944803;29;20085;-82
2022/04/18 10:26:51;;;;;;;11.00;4.82;;;17.90;66.00;;;;;;4947936;28;20039;-82
2022/04/18 10:29:26;;;;;;;10.45;5.25;;;17.90;65.30;;;;;;4931080;29;20113;-82
2022/04/18 10:31:53;;;;;;;9.63;4.90;;;18.10;65.70;;;;;;4964761;28;20078;-82
2022/04/18 10:34:24;;;;;;;11.45;5.30;;;18.10;64.70;;;;;;4931359;28;20043;-82
2022/04/18 10:36:54;;;;;;;9.80;4.82;;;18.20;63.70;;;;;;4915952;29;20050;-82
2022/04/18 10:39:20;;;;;;;9.07;4.50;;;18.30;63.70;;;;;;4928666;28;20436;-82
2022/04/18 10:41:47;;;;;;;9.32;4.18;;;18.40;65.10;;;;;;4928598;28;20047;-82
2022/04/18 10:44:20;;;;;;;9.82;4.60;;;18.50;62.10;;;;;;4947181;28;20035;-82
2022/04/18 10:46:51;;;;;;;12.38;5.10;;;18.50;62.40;;;;;;4910601;28;20098;-82
2022/04/18 10:49:18;;;;;;;11.43;4.45;;;18.60;62.80;;;;;;4933630;29;20044;-82
2022/04/18 10:51:46;;;;;;;9.95;4.25;;;18.70;61.80;;;;;;4932192;29;20046;-82
2022/04/18 10:54:21;;;;;;;8.80;4.20;;;18.70;60.30;;;;;;4965468;28;20047;-82
2022/04/18 10:57:16;;;;;;;13.40;4.70;;;18.70;59.50;;;;;;4934924;29;20043;-83
2022/04/18 10:59:44;;;;;;;10.65;4.45;;;18.80;59.20;;;;;;4935070;29;20078;-82
2022/04/18 11:02:39;;;;;;;9.95;4.57;;;18.90;59.80;;;;;;4950247;28;20415;-82
2022/04/18 11:05:06;;;;;;;9.30;4.40;;;19.00;57.10;;;;;;4949196;28;20039;-82
2022/04/18 11:07:44;;;;;;;11.32;4.90;;;19.00;57.10;;;;;;4949624;28;20070;-82
2022/04/18 11:10:23;;;;;;;10.82;4.45;;;19.10;56.40;;;;;;4964711;28;20045;-82
2022/04/18 11:12:50;;;;;;;9.15;4.05;;;19.20;56.40;;;;;;4949639;28;20054;-83
2022/04/18 11:15:17;;;;;;;9.70;4.55;;;19.20;55.90;;;;;;4934021;29;20054;-83
2022/04/18 11:17:43;;;;;;;9.75;4.38;;;19.30;56.60;;;;;;4936466;29;20594;-82
2022/04/18 11:20:33;;;;;;;9.00;4.40;;;19.40;55.90;;;;;;4951412;28;20154;-82
2022/04/18 11:23:22;;;;;;;9.48;3.97;;;19.50;54.60;;;;;;4933389;29;20479;-83
2022/04/18 11:25:59;;;;;;;9.80;4.03;;;19.50;53.80;;;;;;4933696;28;20047;-83
2022/04/18 11:28:32;;;;;;;9.07;4.05;;;19.50;53.80;;;;;;4933673;28;20098;-83
2022/04/18 11:30:57;;;;;;;9.15;3.83;;;19.60;53.10;;;;;;4933415;29;20087;-82
2022/04/18 11:33:23;;;;;;;8.50;3.70;;;19.50;53.10;;;;;;4933033;29;20078;-82
2022/04/18 11:35:49;;;;;;;9.40;3.97;;;19.60;53.80;;;;;;4916646;29;20102;-83
2022/04/18 11:38:15;;;;;;;9.07;3.47;;;19.70;52.90;;;;;;4918920;29;20047;-82
2022/04/18 11:40:41;;;;;;;9.30;3.75;;;19.70;53.30;;;;;;4950001;29;20043;-82
2022/04/18 11:43:18;;;;;;;8.27;3.58;;;19.80;53.00;;;;;;4948357;28;20043;-82
2022/04/18 11:45:44;;;;;;;8.30;3.92;;;19.80;52.70;;;;;;4965836;28;20035;-82
2022/04/18 11:48:13;;;;;;;7.95;3.70;;;19.90;52.00;;;;;;4932941;29;20044;-83
2022/04/18 11:50:43;;;;;;;9.20;3.88;;;19.80;51.30;;;;;;4934720;28;20047;-83
2022/04/18 11:53:12;;;;;;;8.82;3.75;;;19.90;50.90;;;;;;4933316;29;20047;-83
2022/04/18 11:55:43;;;;;;;9.27;3.90;;;19.90;50.70;;;;;;4948522;28;20110;-82
2022/04/18 11:59:07;;;;;;;8.23;3.53;;;19.90;50.70;;;;;;5133533;27;20140;-83
2022/04/18 12:07:02;;;;;;;9.88;4.10;;;20.10;49.80;;;;;;5108516;28;20052;-82
2022/04/18 12:09:30;;;;;;;8.32;3.55;;;20.10;49.90;;;;;;5075696;28;20043;-82
2022/04/18 12:11:58;;;;;;;8.25;3.35;;;20.20;50.00;;;;;;5124357;28;20500;-83
2022/04/18 12:14:29;;;;;;;8.55;3.42;;;20.20;50.40;;;;;;5088875;27;20035;-82
2022/04/18 12:16:55;;;;;;;8.30;3.25;;;20.30;49.90;;;;;;5120555;27;20039;-82
2022/04/18 12:19:21;;;;;;;8.57;3.70;;;20.20;49.00;;;;;;5109644;28;20542;-82
2022/04/18 12:21:51;;;;;;;9.13;3.60;;;20.30;48.80;;;;;;5108884;28;20039;-82
2022/04/18 12:24:17;;;;;;;9.45;4.32;;;20.30;49.10;;;;;;5106659;28;20035;-82
2022/04/18 12:26:51;;;;;;;10.73;3.83;;;20.30;48.20;;;;;;5106638;28;20069;-82
2022/04/18 12:29:19;;;;;;;10.10;3.88;;;20.30;47.90;;;;;;5107726;27;20028;-82
2022/04/18 12:31:46;;;;;;;9.25;3.85;;;20.40;48.50;;;;;;5105865;28;20032;-82
2022/04/18 12:34:19;;;;;;;9.02;3.80;;;20.50;48.80;;;;;;5105812;28;20403;-82
2022/04/18 12:36:57;;;;;;;10.18;4.10;;;20.60;48.50;;;;;;5105927;28;20360;-82
2022/04/18 12:39:22;;;;;;;8.73;4.03;;;20.60;48.30;;;;;;5088296;28;20484;-82
2022/04/18 12:41:49;;;;;;;8.95;3.92;;;20.60;48.80;;;;;;5105603;28;20050;-82
2022/04/18 12:44:15;;;;;;;9.10;4.25;;;20.70;47.90;;;;;;5122443;28;20031;-82
2022/04/18 12:46:42;;;;;;;8.85;3.80;;;20.70;47.40;;;;;;5124710;28;20041;-82
2022/04/18 12:49:11;;;;;;;8.60;3.90;;;20.80;47.50;;;;;;5092077;28;20039;-82
2022/04/18 12:51:42;;;;;;;9.80;3.72;;;20.90;47.00;;;;;;5107058;28;20483;-82
2022/04/18 12:54:19;;;;;;;8.43;4.15;;;20.80;47.20;;;;;;5078639;28;20503;-82
2022/04/18 12:56:46;;;;;;;9.15;3.97;;;21.00;47.50;;;;;;5109204;27;20043;-82
2022/04/18 12:59:14;;;;;;;8.52;3.80;;;21.00;47.30;;;;;;5094267;27;20063;-82
2022/04/18 13:01:40;;;;;;;9.93;4.22;;;21.00;47.00;;;;;;5091329;28;20051;-82
2022/04/18 13:04:26;;;;;;;9.85;3.90;;;21.10;48.30;;;;;;5085925;28;20050;-82
2022/04/18 13:07:04;;;;;;;8.65;3.72;;;21.20;48.40;;;;;;5094223;28;20495;-82